Irvine, KY (40336)

1:00 PM EST on February 09, 2016 (GMT -0500)
PICNIC HILL | | Change Station
CLOSE
Current Station
Personal Weather Station
Location: IRVINE, KY
Elevation: 830 ft
Nearby Weather Stations
Active Advisory: Winter Weather Advisory

Elev 830 ft 37.71 °N, 84.07 °W | Updated 11 minutes ago

Snow
Snow
25.1 °F
Feels Like 19 °F
N
5.0
Wind Variable Wind from WSW

Today
High -- | Low -- °F
--% Chance of Precip.
Yesterday
High -- | Low -- °F
Precip. -- in
Pressure 29.80 in
Visibility 10.0 miles
Clouds Mostly Cloudy 2800 ft
Overcast 3700 ft
Windchill 19 °F
Dew Point 18 °F
Humidity 73%
Rainfall 0.00 in
Snow Depth Not available.
7:32 AM 6:08 PM
New Moon, 2% visible
METAR KI39 091755Z AUTO 27010KT 10SM BKN028 OVC037 M05/M10 A2980 RMK AO2
Pressure 29.80 in
Visibility 10.0 miles
Clouds Mostly Cloudy 2800 ft
Overcast 3700 ft
Windchill 19 °F
Dew Point 18 °F
Humidity 73%
Rainfall 0.00 in
Snow Depth Not available.
7:32 AM 6:08 PM
New Moon, 2% visible
METAR KI39 091755Z AUTO 27010KT 10SM BKN028 OVC037 M05/M10 A2980 RMK AO2

10-Day Weather Forecast

Almanac

Astronomy

Feb. 09, 2016 Rise Set
Actual Time
Civil Twilight
Nautical Twilight
Astronomical Twilight
Moon
Length of Visible Light
Length of Day
Tomorrow will be .
, % of the Moon is Illuminated

Today's Extremes

State Highs State Lows

Community

WunderPhotos

Upload Photos

1,891,650 photos uploaded!

WunderBlog® & News

Nearby

Air Quality

  Air Quality AQ Index Pollutant
Not available.

Snow Depth

Station Depth Elevation

Earthquake Activity

City Distance Mag. Time & Date
Minimum magnitude displayed is 2.5.

Coastal Water Temperatures

Place Temperature

Stations

Nearby Weather Stations

Station Location Temp. Windchill Dew Point Humidity Wind Precip. Elev Updated Type
                   

Watches & Warnings

Winter Weather Advisory
Issued: 11:40 AM EST Feb. 9, 2016 – National Weather Service

... Winter Weather Advisory remains in effect until 10 am EST
Wednesday...

* periods of snow showers will continue through Wednesday
morning... before gradually diminishing.

* Light snow will accumulate over a prolonged period... with
storm totals through Wednesday morning in the 1 to 3 inch
range for most locations.

* Roads and walkways will become slippery... especially those
which are untreated. Localized heavy snow showers may also
bring greatly reduced visibility at times.

Precautionary/preparedness actions...

A Winter Weather Advisory for snow means that periods of snow
will cause primarily travel difficulties. Be prepared for snow
covered roads and limited visibilities... and use caution while
driving.